Decoded Metar for LZIB (BRATISLAVA in SLOVAKIA) (IATA:BTS) | Meteo·Mobile Aviation Weather
aviador You're here:

LZIB Decoded Metar

BRATISLAVA in SLOVAKIA
Report Time2019-09-21 08:30:00
UTC Time2019-09-21 08:55:13
Flight Rules vfr VFR
Wind080° at 03 kt
W.Decomp.*RWY 04: 2.4 kt HW 1.8 kt RCW
RWY 13: 1.8 kt HW 2.4 kt LCW
Visibility9999 m
Phenomena:N/A
Clouds:N/A
Expected CloudBase > 3,200 ft AGL from Temp-Dew spread
CeilingNone
Temp13°C (ISA -1)
Dew Point05°C (59% RH)
AAT10.8°C
QNH1027 hPa
Density Alt-43 ft
Elevation440 ft
Report Wrong Elevation
Raw Report
LZIB 210830Z 08003KT 360V140 CAVOK 13/05 Q1027 NOSIG=

Extra information for LZIB:More info

Metar Taf Metar & Taf Last 4 Metars F.Rules Stats Wind Profile Meteogram Temp Stats Airport Information Weather charts Add Link Nearby VenuesMetar ALERT Operation Metar Decoded Social comments